Time;durP1;ratioP1;P1;durP2;ratioP2;P2;SDS_P1;SDS_P2;PMS_P1;PMS_P2;Temp;Humidity;BMP_temperature;BMP_pressure;BME280_temperature;BME280_humidity;BME280_pressure;Samples;Min_cycle;Max_cycle;Signal;HPM_P1;HPM_P2
2024/01/12 00:00:03;;;;;;;59.83;21.50;;;1.00;99.90;;;;;;5036717;28;20488;-79
2024/01/12 00:02:31;;;;;;;54.50;20.38;;;1.00;99.90;;;;;;5052894;28;20043;-80
2024/01/12 00:05:00;;;;;;;55.67;20.48;;;0.90;99.90;;;;;;5032482;28;20054;-80
2024/01/12 00:07:26;;;;;;;56.85;21.33;;;1.00;99.90;;;;;;5027979;28;20037;-80
2024/01/12 00:09:53;;;;;;;56.30;20.60;;;1.00;99.90;;;;;;5050831;28;20037;-81
2024/01/12 00:12:19;;;;;;;56.53;19.08;;;1.00;99.90;;;;;;5034338;28;20112;-80
2024/01/12 00:14:45;;;;;;;55.67;20.52;;;1.00;99.90;;;;;;5028014;28;20144;-80
2024/01/12 00:17:12;;;;;;;54.33;19.25;;;1.00;99.90;;;;;;5051327;28;20085;-81
2024/01/12 00:19:43;;;;;;;57.60;20.75;;;1.00;99.90;;;;;;5035191;28;20021;-80
2024/01/12 00:22:09;;;;;;;59.25;21.83;;;1.00;99.90;;;;;;5052070;28;20057;-81
2024/01/12 00:24:35;;;;;;;59.05;21.33;;;1.00;99.90;;;;;;5031617;28;20261;-80
2024/01/12 00:27:00;;;;;;;61.85;21.00;;;1.00;99.90;;;;;;5053064;28;20045;-80
2024/01/12 00:29:28;;;;;;;55.63;20.83;;;1.00;99.90;;;;;;5034964;28;20029;-80
2024/01/12 00:31:55;;;;;;;57.13;20.33;;;1.00;99.90;;;;;;5034193;28;20115;-80
2024/01/12 00:34:20;;;;;;;59.53;21.58;;;1.00;99.90;;;;;;5049147;28;20662;-80
2024/01/12 00:36:49;;;;;;;58.47;21.27;;;1.00;99.90;;;;;;5036620;28;20078;-80
2024/01/12 00:39:18;;;;;;;58.60;21.33;;;1.00;99.90;;;;;;5041819;28;20099;-80
2024/01/12 00:41:43;;;;;;;49.55;21.15;;;1.10;99.90;;;;;;5029980;28;20430;-80
2024/01/12 00:44:09;;;;;;;54.28;21.13;;;1.10;99.90;;;;;;5035607;28;20115;-80
2024/01/12 00:46:37;;;;;;;49.70;20.05;;;1.10;99.90;;;;;;5035084;28;20508;-81
2024/01/12 00:49:03;;;;;;;54.47;20.38;;;1.10;99.90;;;;;;5044951;28;20033;-80
2024/01/12 00:51:30;;;;;;;46.88;18.15;;;1.10;99.90;;;;;;5052591;28;20108;-80
2024/01/12 00:53:55;;;;;;;54.67;20.23;;;1.10;99.90;;;;;;5020722;28;20040;-80
2024/01/12 00:56:21;;;;;;;54.63;20.42;;;1.10;99.90;;;;;;5046583;28;20045;-80
2024/01/12 00:58:47;;;;;;;51.20;18.92;;;1.10;99.90;;;;;;5053072;28;20017;-80
2024/01/12 01:01:12;;;;;;;52.13;20.40;;;1.10;99.90;;;;;;5052849;28;20362;-80
2024/01/12 01:03:38;;;;;;;54.33;20.30;;;1.10;99.90;;;;;;5049320;28;20088;-80
2024/01/12 01:06:05;;;;;;;59.72;21.58;;;1.10;99.90;;;;;;5034489;28;20041;-80
2024/01/12 01:08:30;;;;;;;58.97;20.73;;;1.10;99.90;;;;;;5051292;28;20025;-80
2024/01/12 01:10:56;;;;;;;49.40;19.65;;;1.10;99.90;;;;;;5040192;28;20362;-80
2024/01/12 01:13:22;;;;;;;59.40;22.17;;;1.10;99.90;;;;;;5048981;28;20102;-80
2024/01/12 01:15:48;;;;;;;58.60;21.98;;;1.10;99.90;;;;;;5026732;28;20124;-81
2024/01/12 01:18:17;;;;;;;51.08;19.95;;;1.10;99.90;;;;;;5053647;28;20095;-80
2024/01/12 01:20:43;;;;;;;48.65;19.92;;;1.10;99.90;;;;;;5017971;28;20060;-80
2024/01/12 01:23:08;;;;;;;56.97;20.98;;;1.10;99.90;;;;;;5045480;28;20079;-81
2024/01/12 01:25:39;;;;;;;63.95;21.73;;;1.10;99.90;;;;;;5034414;28;20041;-80
2024/01/12 01:28:04;;;;;;;54.10;20.25;;;1.10;99.90;;;;;;5046610;28;20029;-81
2024/01/12 01:30:31;;;;;;;51.75;20.88;;;1.10;99.90;;;;;;5033615;28;20111;-81
2024/01/12 01:32:57;;;;;;;54.47;21.90;;;1.10;99.90;;;;;;5052175;28;20507;-81
2024/01/12 01:35:22;;;;;;;55.25;21.73;;;1.10;99.90;;;;;;5031705;28;20029;-80
2024/01/12 01:37:50;;;;;;;54.05;21.02;;;1.10;99.90;;;;;;5048387;28;20064;-80
2024/01/12 01:40:16;;;;;;;56.10;21.20;;;1.10;99.90;;;;;;5048300;28;20024;-80
2024/01/12 01:42:41;;;;;;;55.80;21.35;;;1.10;99.90;;;;;;5040922;28;20116;-81
2024/01/12 01:45:08;;;;;;;56.72;21.65;;;1.10;99.90;;;;;;5016634;28;20167;-80
2024/01/12 01:47:34;;;;;;;54.47;22.40;;;1.10;99.90;;;;;;5048704;28;20040;-81
2024/01/12 01:50:00;;;;;;;60.05;21.70;;;1.10;99.90;;;;;;5052947;28;20032;-81
2024/01/12 01:52:27;;;;;;;53.30;19.90;;;1.10;99.90;;;;;;5049175;28;20024;-81
2024/01/12 01:54:53;;;;;;;46.53;19.88;;;1.20;99.90;;;;;;5034226;28;20024;-81
2024/01/12 01:57:20;;;;;;;51.58;19.63;;;1.20;99.90;;;;;;5049178;28;20028;-81
2024/01/12 01:59:46;;;;;;;57.33;22.30;;;1.20;99.90;;;;;;5044249;28;20063;-81
2024/01/12 02:02:12;;;;;;;55.70;21.05;;;1.20;99.90;;;;;;5022056;28;20444;-81
2024/01/12 02:04:38;;;;;;;52.60;20.02;;;1.10;99.90;;;;;;5050899;28;20473;-81
2024/01/12 02:07:04;;;;;;;52.63;20.92;;;1.10;99.90;;;;;;5031043;28;20128;-80
2024/01/12 02:09:31;;;;;;;51.17;20.30;;;1.20;99.90;;;;;;5030555;28;20120;-81
2024/01/12 02:11:59;;;;;;;63.88;22.73;;;1.20;99.90;;;;;;5050817;28;20117;-81
2024/01/12 02:14:25;;;;;;;59.72;22.02;;;1.20;99.90;;;;;;5057278;28;20481;-81
2024/01/12 02:16:52;;;;;;;55.80;22.17;;;1.20;99.90;;;;;;5050214;28;20067;-80
2024/01/12 02:19:18;;;;;;;65.95;22.08;;;1.20;99.90;;;;;;5033722;28;20020;-81
2024/01/12 02:21:45;;;;;;;61.17;22.42;;;1.20;99.90;;;;;;5034859;28;20040;-78
2024/01/12 02:24:19;;;;;;;48.13;18.85;;;1.20;99.90;;;;;;5045348;28;20128;-79
2024/01/12 02:26:46;;;;;;;52.67;19.70;;;1.20;99.90;;;;;;5053683;28;20037;-80
2024/01/12 02:29:13;;;;;;;51.53;20.88;;;1.20;99.90;;;;;;5032382;28;20094;-81
2024/01/12 02:31:39;;;;;;;67.68;23.25;;;1.20;99.90;;;;;;5039065;28;20481;-84
2024/01/12 02:34:05;;;;;;;55.50;20.92;;;1.20;99.90;;;;;;5036849;28;20028;-82
2024/01/12 02:36:33;;;;;;;55.38;20.55;;;1.20;99.90;;;;;;5029576;28;20036;-83
2024/01/12 02:39:00;;;;;;;62.83;23.77;;;1.20;99.90;;;;;;5053667;28;20025;-81
2024/01/12 02:41:26;;;;;;;59.40;21.35;;;1.20;99.90;;;;;;5041731;28;20025;-81
2024/01/12 02:43:52;;;;;;;64.93;22.88;;;1.20;99.90;;;;;;5036999;28;20021;-80
2024/01/12 02:46:18;;;;;;;58.88;20.65;;;1.20;99.90;;;;;;5030290;28;20132;-81
2024/01/12 02:48:43;;;;;;;57.70;20.42;;;1.20;99.90;;;;;;5030060;28;20060;-82
2024/01/12 02:51:09;;;;;;;60.05;22.33;;;1.20;99.90;;;;;;5038941;28;20112;-82
2024/01/12 02:53:34;;;;;;;57.20;20.42;;;1.20;99.90;;;;;;5035464;28;20047;-81
2024/01/12 02:56:00;;;;;;;55.10;21.55;;;1.20;99.90;;;;;;5046762;28;20033;-80
2024/01/12 02:58:29;;;;;;;55.70;21.15;;;1.20;99.90;;;;;;5010348;28;20394;-81
2024/01/12 03:00:56;;;;;;;58.20;21.70;;;1.20;99.90;;;;;;5050032;28;20025;-81
2024/01/12 03:03:22;;;;;;;55.78;21.58;;;1.20;99.90;;;;;;5050611;28;20420;-82
2024/01/12 03:05:49;;;;;;;56.78;19.75;;;1.20;99.90;;;;;;5031378;28;20045;-80
2024/01/12 03:08:15;;;;;;;63.90;21.10;;;1.20;99.90;;;;;;5036834;28;20036;-81
2024/01/12 03:10:43;;;;;;;57.17;20.05;;;1.20;99.90;;;;;;5039724;28;20564;-81
2024/01/12 03:13:08;;;;;;;53.47;21.25;;;1.20;99.90;;;;;;5044802;28;20124;-81
2024/01/12 03:15:36;;;;;;;53.53;20.02;;;1.20;99.90;;;;;;5036026;28;20436;-81
2024/01/12 03:18:02;;;;;;;58.10;21.13;;;1.20;99.90;;;;;;5044698;28;20033;-81
2024/01/12 03:20:28;;;;;;;49.25;20.33;;;1.20;99.90;;;;;;5052529;28;20032;-81
2024/01/12 03:22:53;;;;;;;46.38;18.65;;;1.20;99.90;;;;;;5054712;28;20400;-81
2024/01/12 03:25:19;;;;;;;48.70;20.00;;;1.20;99.90;;;;;;5040875;28;20039;-81
2024/01/12 03:27:45;;;;;;;55.35;21.17;;;1.20;99.90;;;;;;5051432;28;20036;-80
2024/01/12 03:30:10;;;;;;;53.30;19.35;;;1.20;99.90;;;;;;5050345;28;20510;-80
2024/01/12 03:32:38;;;;;;;50.17;20.30;;;1.20;99.90;;;;;;5042394;28;20128;-80
2024/01/12 03:35:04;;;;;;;58.08;20.98;;;1.20;99.90;;;;;;5055997;28;20029;-81
2024/01/12 03:37:30;;;;;;;57.67;20.83;;;1.20;99.90;;;;;;5048326;28;20028;-80
2024/01/12 03:39:59;;;;;;;55.70;20.75;;;1.20;99.90;;;;;;5056385;28;20024;-80
2024/01/12 03:42:24;;;;;;;57.67;21.90;;;1.20;99.90;;;;;;5035050;28;20047;-80
2024/01/12 03:44:50;;;;;;;80.20;41.00;;;1.20;99.90;;;;;;5051772;28;20025;-80
2024/01/12 03:47:15;;;;;;;85.25;39.00;;;1.20;99.90;;;;;;5047549;28;20040;-80
2024/01/12 03:49:46;;;;;;;68.00;30.10;;;1.20;99.90;;;;;;5040487;28;20112;-81
2024/01/12 03:52:11;;;;;;;66.15;24.98;;;1.20;99.90;;;;;;5044015;28;20568;-80
2024/01/12 03:54:39;;;;;;;57.13;22.65;;;1.20;99.90;;;;;;5054032;28;20108;-80
2024/01/12 03:57:04;;;;;;;67.13;23.90;;;1.20;99.90;;;;;;5052981;28;20067;-80
2024/01/12 03:59:30;;;;;;;59.20;23.88;;;1.20;99.90;;;;;;5048628;28;20088;-80
2024/01/12 04:01:55;;;;;;;55.47;22.88;;;1.20;99.90;;;;;;5049083;28;20536;-80
2024/01/12 04:04:21;;;;;;;58.50;23.08;;;1.20;99.90;;;;;;5035251;28;20025;-80
2024/01/12 04:06:47;;;;;;;51.67;22.80;;;1.20;99.90;;;;;;5040431;28;20048;-80
2024/01/12 04:09:15;;;;;;;58.58;23.92;;;1.20;99.90;;;;;;5029456;28;20040;-80
2024/01/12 04:11:41;;;;;;;54.35;23.52;;;1.20;99.90;;;;;;5048593;28;20031;-81
2024/01/12 04:14:09;;;;;;;61.80;27.10;;;1.20;99.90;;;;;;5052806;28;20029;-81
2024/01/12 04:16:34;;;;;;;69.38;28.65;;;1.20;99.90;;;;;;5009278;28;20025;-81
2024/01/12 04:19:00;;;;;;;69.25;29.30;;;1.20;99.90;;;;;;5042782;28;20481;-81
2024/01/12 04:21:26;;;;;;;61.85;28.08;;;1.20;99.90;;;;;;5043058;28;20384;-80
2024/01/12 04:23:51;;;;;;;69.53;26.95;;;1.30;99.90;;;;;;5052761;28;20039;-80
2024/01/12 04:26:17;;;;;;;64.13;25.05;;;1.20;99.90;;;;;;5043998;28;20682;-82
2024/01/12 04:28:45;;;;;;;60.25;25.45;;;1.20;99.90;;;;;;5044651;28;20020;-82
2024/01/12 04:31:10;;;;;;;60.72;24.58;;;1.30;99.90;;;;;;5041499;28;20640;-81
2024/01/12 04:33:36;;;;;;;56.45;24.17;;;1.30;99.90;;;;;;5060047;28;20029;-80
2024/01/12 04:36:02;;;;;;;59.38;25.10;;;1.30;99.90;;;;;;5060076;28;20032;-80
2024/01/12 04:38:31;;;;;;;52.90;21.38;;;1.30;99.90;;;;;;5042696;28;20032;-80
2024/01/12 04:40:57;;;;;;;52.90;20.52;;;1.30;99.90;;;;;;5042382;28;20124;-81
2024/01/12 04:43:22;;;;;;;51.00;19.08;;;1.30;99.90;;;;;;5034247;28;20091;-80
2024/01/12 04:45:48;;;;;;;50.20;19.30;;;1.40;99.90;;;;;;5053057;28;20040;-80
2024/01/12 04:48:18;;;;;;;52.15;18.15;;;1.40;99.90;;;;;;5045867;28;20113;-81
2024/01/12 04:50:44;;;;;;;48.67;19.80;;;1.40;99.90;;;;;;5047368;28;20033;-81
2024/01/12 04:53:09;;;;;;;51.95;19.05;;;1.40;99.90;;;;;;5050383;28;20437;-80
2024/01/12 04:55:35;;;;;;;49.50;19.52;;;1.40;99.90;;;;;;5040713;28;20334;-81
2024/01/12 04:58:03;;;;;;;52.22;19.45;;;1.40;99.90;;;;;;5041268;28;20029;-82
2024/01/12 05:00:30;;;;;;;50.63;18.95;;;1.40;99.90;;;;;;5044098;28;20393;-84
2024/01/12 05:02:56;;;;;;;46.80;19.40;;;1.40;99.90;;;;;;5061183;28;20480;-79
2024/01/12 05:05:21;;;;;;;52.40;19.98;;;1.50;99.90;;;;;;5044123;28;20059;-76
2024/01/12 05:07:47;;;;;;;47.40;18.63;;;1.50;99.90;;;;;;5044931;28;20029;-78
2024/01/12 05:10:13;;;;;;;58.08;21.35;;;1.50;99.90;;;;;;5062265;28;20086;-79
2024/01/12 05:12:39;;;;;;;50.80;19.00;;;1.50;99.90;;;;;;5051939;28;20029;-78
2024/01/12 05:15:06;;;;;;;56.05;19.10;;;1.40;99.90;;;;;;5047104;28;20032;-77
2024/01/12 05:17:32;;;;;;;52.10;20.45;;;1.50;99.90;;;;;;5033337;28;20021;-79
2024/01/12 05:19:58;;;;;;;50.72;19.48;;;1.50;99.90;;;;;;5055201;28;20089;-77
2024/01/12 05:22:24;;;;;;;50.72;23.33;;;1.50;99.90;;;;;;5048531;28;20450;-77
2024/01/12 05:24:49;;;;;;;53.40;20.20;;;1.50;99.90;;;;;;5029085;28;20025;-77
2024/01/12 05:27:15;;;;;;;52.05;20.25;;;1.50;99.90;;;;;;5051352;28;20040;-77
2024/01/12 05:29:41;;;;;;;54.83;21.80;;;1.50;99.90;;;;;;5052605;28;20136;-77
2024/01/12 05:32:07;;;;;;;53.25;20.90;;;1.50;99.90;;;;;;5051674;28;20017;-77
2024/01/12 05:34:32;;;;;;;44.25;18.98;;;1.50;99.90;;;;;;5049975;28;20040;-77
2024/01/12 05:36:58;;;;;;;45.55;16.05;;;1.50;99.90;;;;;;5052337;28;20033;-77
2024/01/12 05:39:23;;;;;;;45.50;15.77;;;1.50;99.90;;;;;;5027314;28;20021;-77
2024/01/12 05:41:49;;;;;;;44.47;17.23;;;1.50;99.90;;;;;;5049985;28;20028;-77
2024/01/12 05:44:14;;;;;;;41.22;16.42;;;1.50;99.90;;;;;;5052664;28;20032;-78
2024/01/12 05:46:41;;;;;;;42.35;16.23;;;1.60;99.90;;;;;;5042766;28;20044;-77
2024/01/12 05:49:06;;;;;;;33.75;15.18;;;1.60;99.90;;;;;;5038123;28;20040;-77
2024/01/12 05:51:32;;;;;;;42.53;14.95;;;1.60;99.90;;;;;;5050496;28;20028;-77
2024/01/12 05:53:57;;;;;;;41.97;17.35;;;1.60;99.90;;;;;;5051621;28;20037;-77
2024/01/12 05:56:24;;;;;;;43.53;17.23;;;1.60;99.90;;;;;;5052634;28;20094;-78
2024/01/12 05:58:50;;;;;;;48.20;17.50;;;1.60;99.90;;;;;;5056085;28;20472;-79
2024/01/12 06:01:17;;;;;;;42.75;15.93;;;1.60;99.90;;;;;;5051075;28;20070;-78
2024/01/12 06:03:44;;;;;;;43.65;14.35;;;1.60;99.90;;;;;;5050056;28;20029;-78
2024/01/12 06:06:10;;;;;;;38.28;14.85;;;1.60;99.90;;;;;;5051249;28;20550;-78
2024/01/12 06:08:36;;;;;;;41.15;13.85;;;1.60;99.90;;;;;;5044218;28;20029;-78
2024/01/12 06:11:01;;;;;;;40.42;13.40;;;1.70;99.90;;;;;;5038560;28;20525;-78
2024/01/12 06:13:27;;;;;;;36.58;12.15;;;1.70;99.90;;;;;;5050765;28;20021;-78
2024/01/12 06:15:52;;;;;;;34.92;12.88;;;1.70;99.90;;;;;;5049084;28;20465;-78
2024/01/12 06:18:18;;;;;;;41.10;13.93;;;1.80;99.90;;;;;;5048012;28;20029;-78
2024/01/12 06:20:43;;;;;;;30.55;12.05;;;1.80;99.90;;;;;;5050267;28;20083;-78
2024/01/12 06:23:09;;;;;;;34.45;11.48;;;1.70;99.90;;;;;;5050752;28;20045;-78
2024/01/12 06:25:38;;;;;;;35.90;13.52;;;1.70;99.90;;;;;;5048345;28;20097;-78
2024/01/12 06:28:04;;;;;;;34.42;12.88;;;1.70;99.90;;;;;;5035179;28;20029;-77
2024/01/12 06:30:29;;;;;;;48.25;13.38;;;1.70;99.90;;;;;;5039714;28;20047;-78
2024/01/12 06:32:55;;;;;;;35.75;15.88;;;1.70;99.90;;;;;;5049182;28;20033;-78
2024/01/12 06:35:20;;;;;;;37.10;14.88;;;1.70;99.90;;;;;;5043619;28;20418;-78
2024/01/12 06:37:46;;;;;;;37.78;17.50;;;1.70;99.90;;;;;;5041774;28;20061;-78
2024/01/12 06:40:12;;;;;;;38.78;17.77;;;1.70;99.90;;;;;;5048760;28;20033;-78
2024/01/12 06:42:37;;;;;;;45.53;17.52;;;1.70;99.90;;;;;;5047045;28;20503;-78
2024/01/12 06:45:07;;;;;;;44.60;19.00;;;1.80;99.90;;;;;;5049286;28;20116;-78
2024/01/12 06:47:33;;;;;;;37.25;16.75;;;1.70;99.90;;;;;;5043442;28;20389;-78
2024/01/12 06:49:59;;;;;;;41.72;15.52;;;1.70;99.90;;;;;;5043530;28;20091;-78
2024/01/12 06:52:24;;;;;;;41.38;14.10;;;1.70;99.90;;;;;;5043690;28;20447;-78
2024/01/12 06:54:50;;;;;;;41.58;14.68;;;1.80;99.90;;;;;;5051185;28;20120;-77
2024/01/12 06:57:15;;;;;;;36.38;14.05;;;1.80;99.90;;;;;;5047945;28;20033;-77
2024/01/12 06:59:41;;;;;;;37.63;16.30;;;1.80;99.90;;;;;;5050926;28;20195;-78
2024/01/12 07:02:07;;;;;;;31.08;13.00;;;1.80;99.90;;;;;;5048339;28;20523;-78
2024/01/12 07:04:33;;;;;;;40.13;16.00;;;1.80;99.90;;;;;;5042272;28;20018;-78
2024/01/12 07:06:58;;;;;;;32.78;14.40;;;1.90;99.90;;;;;;5047636;28;20047;-78
2024/01/12 07:09:24;;;;;;;38.53;15.70;;;1.90;99.90;;;;;;5049673;28;20388;-78
2024/01/12 07:11:50;;;;;;;38.55;14.70;;;1.90;99.90;;;;;;5050651;28;20440;-78
2024/01/12 07:14:16;;;;;;;37.20;16.77;;;1.90;99.90;;;;;;5048889;28;20029;-78
2024/01/12 07:16:42;;;;;;;41.50;17.35;;;1.80;99.90;;;;;;5048868;28;20040;-77
2024/01/12 07:19:08;;;;;;;36.08;15.18;;;1.80;99.90;;;;;;5046348;28;20022;-78
2024/01/12 07:21:34;;;;;;;39.22;17.17;;;1.80;99.90;;;;;;5045275;28;20036;-78
2024/01/12 07:24:01;;;;;;;43.72;15.88;;;1.80;99.90;;;;;;5048960;28;20493;-78
2024/01/12 07:26:26;;;;;;;33.75;13.73;;;1.80;99.90;;;;;;5032734;28;20037;-77
2024/01/12 07:28:52;;;;;;;39.25;15.20;;;1.90;99.90;;;;;;5030909;28;20032;-78
2024/01/12 07:31:18;;;;;;;38.42;14.48;;;1.90;99.90;;;;;;5030324;28;20026;-79
2024/01/12 07:33:44;;;;;;;32.65;14.98;;;1.80;99.90;;;;;;5051369;28;20104;-79
2024/01/12 07:36:09;;;;;;;36.88;12.45;;;1.90;99.90;;;;;;5050857;28;20129;-79
2024/01/12 07:38:36;;;;;;;36.10;13.40;;;1.90;99.90;;;;;;5049781;28;20456;-77
2024/01/12 07:41:01;;;;;;;31.15;12.88;;;1.90;99.90;;;;;;5038715;28;20110;-76
2024/01/12 07:43:27;;;;;;;36.15;14.00;;;1.90;99.90;;;;;;5038484;28;20063;-79
2024/01/12 07:45:57;;;;;;;36.55;11.98;;;2.00;99.90;;;;;;5048997;28;20051;-78
2024/01/12 07:48:23;;;;;;;35.40;12.18;;;2.00;99.90;;;;;;5044232;28;20265;-79
2024/01/12 07:50:49;;;;;;;32.53;11.23;;;2.10;99.90;;;;;;5050211;28;20146;-79
2024/01/12 07:53:14;;;;;;;33.53;11.63;;;2.10;99.90;;;;;;5050973;28;20025;-78
2024/01/12 07:55:40;;;;;;;35.15;11.48;;;2.10;99.90;;;;;;5047887;28;20043;-78
2024/01/12 07:58:06;;;;;;;39.17;12.30;;;2.10;99.90;;;;;;5031040;28;20028;-78
2024/01/12 08:00:31;;;;;;;34.17;12.57;;;2.10;99.90;;;;;;5049041;28;20028;-78
2024/01/12 08:02:57;;;;;;;37.40;11.60;;;2.20;99.90;;;;;;5052202;28;20034;-79
2024/01/12 08:05:23;;;;;;;33.70;11.60;;;2.10;99.90;;;;;;5050642;28;20056;-77
2024/01/12 08:07:49;;;;;;;34.58;11.43;;;2.20;99.90;;;;;;5053872;28;20104;-78
2024/01/12 08:10:16;;;;;;;32.55;11.82;;;2.20;99.90;;;;;;5049173;28;20029;-79
2024/01/12 08:12:42;;;;;;;26.02;11.85;;;2.20;99.90;;;;;;5055026;28;20029;-79
2024/01/12 08:15:09;;;;;;;33.72;11.63;;;2.20;99.90;;;;;;5026003;28;20087;-79
2024/01/12 08:17:40;;;;;;;31.17;11.27;;;2.20;99.90;;;;;;5058190;28;20028;-79
2024/01/12 08:20:07;;;;;;;23.33;10.90;;;2.30;99.90;;;;;;5065842;28;20060;-79
2024/01/12 08:22:33;;;;;;;34.13;11.02;;;2.30;99.90;;;;;;5053410;28;20060;-78
2024/01/12 08:25:00;;;;;;;30.13;11.43;;;2.30;99.90;;;;;;5048207;28;20080;-78
2024/01/12 08:27:26;;;;;;;26.95;10.43;;;2.30;99.90;;;;;;5058896;28;20413;-79
2024/01/12 08:29:53;;;;;;;35.58;11.07;;;2.30;99.90;;;;;;5062843;28;20078;-78
2024/01/12 08:32:18;;;;;;;33.97;11.98;;;2.40;99.90;;;;;;5033112;28;20021;-80
2024/01/12 08:34:46;;;;;;;32.83;12.05;;;2.40;99.90;;;;;;5020120;28;20021;-79
2024/01/12 08:37:12;;;;;;;35.13;12.18;;;2.50;99.90;;;;;;5054448;28;20108;-79
2024/01/12 08:39:37;;;;;;;31.13;11.65;;;2.50;99.90;;;;;;5054388;28;20511;-79
2024/01/12 08:42:03;;;;;;;30.48;11.32;;;2.50;99.90;;;;;;5037061;28;20036;-79
2024/01/12 08:44:29;;;;;;;30.25;12.00;;;2.50;99.90;;;;;;5049393;28;20032;-79
2024/01/12 08:46:54;;;;;;;30.50;11.05;;;2.60;99.90;;;;;;5050622;28;20090;-79
2024/01/12 08:49:21;;;;;;;29.98;11.98;;;2.60;99.90;;;;;;5038728;28;20105;-79
2024/01/12 08:51:47;;;;;;;34.65;12.40;;;2.70;99.90;;;;;;5035975;28;20048;-78
2024/01/12 08:54:13;;;;;;;35.08;12.20;;;2.70;99.90;;;;;;5031551;28;20029;-77
2024/01/12 08:56:38;;;;;;;30.38;11.05;;;2.80;99.90;;;;;;5055134;28;20033;-77
2024/01/12 08:59:04;;;;;;;22.95;10.75;;;2.80;99.90;;;;;;5036219;28;20033;-78
2024/01/12 09:01:30;;;;;;;30.90;12.52;;;2.80;99.90;;;;;;5054625;28;20031;-78
2024/01/12 09:03:55;;;;;;;28.02;10.13;;;2.90;99.90;;;;;;5055319;28;20079;-77
2024/01/12 09:06:23;;;;;;;30.73;10.95;;;2.90;99.90;;;;;;5053954;28;20041;-78
2024/01/12 09:08:49;;;;;;;35.83;11.82;;;2.90;99.90;;;;;;5049731;28;20025;-80
2024/01/12 09:11:15;;;;;;;31.90;12.38;;;2.90;99.90;;;;;;5047188;28;20025;-78
2024/01/12 09:13:40;;;;;;;35.08;12.02;;;2.90;99.90;;;;;;5034570;28;20032;-78
2024/01/12 09:16:10;;;;;;;30.15;12.73;;;2.90;99.90;;;;;;5050164;28;20369;-77
2024/01/12 09:18:35;;;;;;;33.15;12.75;;;2.90;99.90;;;;;;5039404;28;20552;-77
2024/01/12 09:21:01;;;;;;;27.65;11.32;;;3.00;99.90;;;;;;5016284;28;20080;-77
2024/01/12 09:23:27;;;;;;;37.40;13.23;;;3.00;99.90;;;;;;5050286;28;20412;-78
2024/01/12 09:25:54;;;;;;;38.50;12.38;;;3.00;99.90;;;;;;5053376;28;20029;-77
2024/01/12 09:28:20;;;;;;;29.42;12.00;;;3.10;99.90;;;;;;5053041;28;20032;-77
2024/01/12 09:30:46;;;;;;;27.50;12.38;;;3.10;99.90;;;;;;5054165;28;20428;-77
2024/01/12 09:33:15;;;;;;;27.80;12.13;;;3.10;99.90;;;;;;5035528;28;20493;-77
2024/01/12 09:35:42;;;;;;;25.70;11.48;;;3.10;99.90;;;;;;5053936;28;20021;-77
2024/01/12 09:38:08;;;;;;;22.55;11.20;;;3.20;99.90;;;;;;5045273;28;20043;-77
2024/01/12 09:40:34;;;;;;;21.17;10.57;;;3.20;99.90;;;;;;5053225;28;20025;-77
2024/01/12 09:43:10;;;;;;;30.50;11.30;;;3.20;99.90;;;;;;5052633;28;20032;-78
2024/01/12 09:45:40;;;;;;;34.47;11.35;;;3.20;99.90;;;;;;5050165;28;20965;-78
2024/01/12 09:48:08;;;;;;;28.85;11.52;;;3.20;99.90;;;;;;5045676;28;20092;-77
2024/01/12 09:50:34;;;;;;;27.65;12.00;;;3.20;99.90;;;;;;5053563;28;20025;-78
2024/01/12 09:52:59;;;;;;;26.80;10.65;;;3.30;99.90;;;;;;5053849;28;20033;-77
2024/01/12 09:55:25;;;;;;;23.95;9.60;;;3.40;99.90;;;;;;5034937;28;20029;-78
2024/01/12 09:57:51;;;;;;;32.40;11.75;;;3.40;99.90;;;;;;5052865;28;20025;-79
2024/01/12 10:00:20;;;;;;;29.02;10.43;;;3.50;99.90;;;;;;5049325;28;20029;-78
2024/01/12 10:02:45;;;;;;;33.15;10.48;;;3.50;99.90;;;;;;5037011;28;20079;-78
2024/01/12 10:05:11;;;;;;;28.98;10.30;;;3.50;99.90;;;;;;5036574;28;20057;-79
2024/01/12 10:07:37;;;;;;;23.85;9.85;;;3.50;99.90;;;;;;5045502;28;20040;-78
2024/01/12 10:10:05;;;;;;;27.50;10.90;;;3.50;99.90;;;;;;5031892;28;20327;-79
2024/01/12 10:12:31;;;;;;;28.52;10.95;;;3.60;99.90;;;;;;5043380;28;20608;-78
2024/01/12 10:15:11;;;;;;;25.48;10.50;;;3.60;99.90;;;;;;5016489;28;20034;-79
2024/01/12 10:17:37;;;;;;;25.55;9.95;;;3.70;99.90;;;;;;5039346;28;20055;-81
2024/01/12 10:20:06;;;;;;;23.92;10.38;;;3.70;99.90;;;;;;5051046;28;20033;-79
2024/01/12 10:22:33;;;;;;;25.42;9.38;;;3.70;99.90;;;;;;5034956;28;20049;-79
2024/01/12 10:25:04;;;;;;;21.83;8.93;;;3.80;99.90;;;;;;5045909;28;20168;-79
2024/01/12 10:27:31;;;;;;;19.60;9.27;;;3.80;99.90;;;;;;5042321;28;20025;-79
2024/01/12 10:29:57;;;;;;;23.92;9.63;;;3.70;99.90;;;;;;5033155;28;20029;-79
2024/01/12 10:32:23;;;;;;;25.48;8.82;;;3.80;99.90;;;;;;5050054;28;20029;-79
2024/01/12 10:34:51;;;;;;;18.40;7.72;;;3.80;99.90;;;;;;5032551;28;20028;-79
2024/01/12 10:37:17;;;;;;;17.23;7.97;;;3.80;99.90;;;;;;5048557;28;20033;-78
2024/01/12 10:39:50;;;;;;;22.95;9.15;;;3.80;99.90;;;;;;5051783;28;20108;-79
2024/01/12 10:42:16;;;;;;;;;;;3.80;99.90;;;;;;5049968;28;20389;-81
2024/01/12 10:44:46;;;;;;;22.17;7.68;;;3.80;99.90;;;;;;5047175;28;19916;-77
2024/01/12 10:47:19;;;;;;;22.77;8.63;;;3.80;99.90;;;;;;5045250;28;20033;-76
2024/01/12 10:49:50;;;;;;;19.70;7.63;;;3.80;99.90;;;;;;5048987;28;20464;-77
2024/01/12 10:52:46;;;;;;;19.77;7.80;;;3.80;99.90;;;;;;5046072;28;20028;-76
2024/01/12 10:55:16;;;;;;;17.17;7.70;;;3.80;99.90;;;;;;5044456;28;20040;-79
2024/01/12 10:57:46;;;;;;;22.50;8.32;;;3.80;99.90;;;;;;5042036;28;20100;-79
2024/01/12 11:00:14;;;;;;;19.25;7.88;;;3.70;99.90;;;;;;5046617;28;20100;-79
2024/01/12 11:02:40;;;;;;;23.77;8.75;;;3.80;99.90;;;;;;5031955;28;20104;-79
2024/01/12 11:05:08;;;;;;;20.00;8.05;;;3.80;99.90;;;;;;5026135;28;20041;-79
2024/01/12 11:07:34;;;;;;;21.80;8.68;;;3.90;99.90;;;;;;5050661;28;20037;-79
2024/01/12 11:10:00;;;;;;;22.98;8.27;;;3.90;99.90;;;;;;5040702;28;20021;-77
2024/01/12 11:12:40;;;;;;;18.52;7.97;;;3.90;99.90;;;;;;5050281;28;20021;-78
2024/01/12 11:15:07;;;;;;;23.10;9.93;;;3.90;99.90;;;;;;5032886;28;20029;-78
2024/01/12 11:17:36;;;;;;;22.00;9.00;;;3.90;99.90;;;;;;5050177;28;20491;-78
2024/01/12 11:20:11;;;;;;;24.42;8.20;;;3.90;99.90;;;;;;5049078;28;20079;-77
2024/01/12 11:22:41;;;;;;;21.27;7.88;;;4.00;99.90;;;;;;5038257;28;20087;-78
2024/01/12 11:25:09;;;;;;;18.80;8.60;;;3.90;99.90;;;;;;5045361;28;20559;-78
2024/01/12 11:27:37;;;;;;;21.10;8.70;;;4.00;99.90;;;;;;5033369;28;20464;-77
2024/01/12 11:30:05;;;;;;;25.85;8.73;;;4.00;99.90;;;;;;5041674;28;20487;-78
2024/01/12 11:32:31;;;;;;;28.30;8.07;;;4.00;99.90;;;;;;5035346;28;20084;-78
2024/01/12 11:35:17;;;;;;;24.13;8.63;;;4.00;99.90;;;;;;5045210;28;20060;-77
2024/01/12 11:37:45;;;;;;;16.42;7.18;;;4.10;99.90;;;;;;5045697;28;20469;-78
2024/01/12 11:40:15;;;;;;;19.90;7.68;;;4.10;99.90;;;;;;5041252;28;20043;-77
2024/01/12 11:42:42;;;;;;;22.65;7.80;;;4.10;99.90;;;;;;5041583;28;20658;-78
2024/01/12 11:45:10;;;;;;;21.00;7.32;;;4.10;99.90;;;;;;5029555;28;20026;-78
2024/01/12 11:47:44;;;;;;;25.75;8.32;;;4.10;99.90;;;;;;5043909;28;20036;-78
2024/01/12 11:50:12;;;;;;;21.10;7.65;;;4.10;99.90;;;;;;5032021;28;20564;-79
2024/01/12 11:52:38;;;;;;;25.15;8.13;;;4.10;99.90;;;;;;5047411;28;20029;-78
2024/01/12 11:55:07;;;;;;;18.58;7.25;;;4.10;99.90;;;;;;5051005;28;20029;-78
2024/01/12 11:57:34;;;;;;;24.08;8.02;;;4.10;99.90;;;;;;5033372;28;20021;-78
2024/01/12 11:59:59;;;;;;;22.17;9.35;;;4.10;99.90;;;;;;5046325;28;20029;-78
2024/01/12 12:02:25;;;;;;;19.95;8.07;;;4.20;99.90;;;;;;5045597;28;20504;-78
2024/01/12 12:04:54;;;;;;;16.33;7.65;;;4.20;99.90;;;;;;5043536;28;20040;-78
2024/01/12 12:07:27;;;;;;;19.98;8.23;;;4.10;99.90;;;;;;5049587;28;20086;-78
2024/01/12 12:09:53;;;;;;;20.30;7.45;;;4.20;99.90;;;;;;5050658;28;20334;-78
2024/01/12 12:12:22;;;;;;;19.58;7.30;;;4.10;99.90;;;;;;5047266;28;20039;-78
2024/01/12 12:15:14;;;;;;;18.13;7.40;;;4.20;99.90;;;;;;5053874;28;20491;-78
2024/01/12 12:17:46;;;;;;;21.35;7.70;;;4.20;99.90;;;;;;5042732;28;20044;-77
2024/01/12 12:20:12;;;;;;;19.92;7.88;;;4.20;99.90;;;;;;5048131;28;20140;-79
2024/01/12 12:22:43;;;;;;;26.48;8.57;;;4.20;99.90;;;;;;5017661;28;20521;-78
2024/01/12 12:25:10;;;;;;;21.63;7.60;;;4.20;99.90;;;;;;5034949;28;20036;-79
2024/01/12 12:27:37;;;;;;;18.52;7.57;;;4.20;99.90;;;;;;5052813;28;20033;-78
2024/01/12 12:30:26;;;;;;;18.38;7.38;;;4.20;99.90;;;;;;5030235;28;20028;-79
2024/01/12 12:32:51;;;;;;;17.48;7.15;;;4.20;99.90;;;;;;5037635;28;20408;-78
2024/01/12 12:35:23;;;;;;;15.45;6.38;;;4.30;99.90;;;;;;5043668;28;20017;-78